sensor_id;sensor_type;location;lat;lon;timestamp;temperature;humidity
66740;DHT22;53653;52.188;8.602;2024-03-06T00:00:14;5.03;95.71
66740;DHT22;53653;52.188;8.602;2024-03-06T00:02:40;5.01;95.56
66740;DHT22;53653;52.188;8.602;2024-03-06T00:05:06;5.01;95.46
66740;DHT22;53653;52.188;8.602;2024-03-06T00:07:33;5.03;95.25
66740;DHT22;53653;52.188;8.602;2024-03-06T00:09:58;5.04;95.47
66740;DHT22;53653;52.188;8.602;2024-03-06T00:12:23;5.05;95.53
66740;DHT22;53653;52.188;8.602;2024-03-06T00:14:49;5.03;95.41
66740;DHT22;53653;52.188;8.602;2024-03-06T00:17:14;5.03;95.60
66740;DHT22;53653;52.188;8.602;2024-03-06T00:19:40;4.98;96.13
66740;DHT22;53653;52.188;8.602;2024-03-06T00:22:07;4.94;95.52
66740;DHT22;53653;52.188;8.602;2024-03-06T00:24:33;4.95;95.79
66740;DHT22;53653;52.188;8.602;2024-03-06T00:26:58;4.95;96.21
66740;DHT22;53653;52.188;8.602;2024-03-06T00:29:23;4.91;95.70
66740;DHT22;53653;52.188;8.602;2024-03-06T00:31:49;4.87;95.44
66740;DHT22;53653;52.188;8.602;2024-03-06T00:34:15;4.87;95.26
66740;DHT22;53653;52.188;8.602;2024-03-06T00:36:41;4.88;95.18
66740;DHT22;53653;52.188;8.602;2024-03-06T00:39:07;4.93;95.38
66740;DHT22;53653;52.188;8.602;2024-03-06T00:41:34;4.94;94.92
66740;DHT22;53653;52.188;8.602;2024-03-06T00:44:00;4.97;94.48
66740;DHT22;53653;52.188;8.602;2024-03-06T00:46:25;4.94;94.50
66740;DHT22;53653;52.188;8.602;2024-03-06T00:48:51;4.94;94.56
66740;DHT22;53653;52.188;8.602;2024-03-06T00:51:16;4.97;94.35
66740;DHT22;53653;52.188;8.602;2024-03-06T00:53:43;4.97;94.31
66740;DHT22;53653;52.188;8.602;2024-03-06T00:56:08;4.97;94.27
66740;DHT22;53653;52.188;8.602;2024-03-06T00:58:34;4.94;93.96
66740;DHT22;53653;52.188;8.602;2024-03-06T01:01:00;4.91;94.12
66740;DHT22;53653;52.188;8.602;2024-03-06T01:03:25;4.91;93.67
66740;DHT22;53653;52.188;8.602;2024-03-06T01:05:51;4.94;93.33
66740;DHT22;53653;52.188;8.602;2024-03-06T01:08:24;4.97;93.53
66740;DHT22;53653;52.188;8.602;2024-03-06T01:10:53;4.98;93.79
66740;DHT22;53653;52.188;8.602;2024-03-06T01:13:19;4.94;93.58
66740;DHT22;53653;52.188;8.602;2024-03-06T01:15:45;4.97;93.29
66740;DHT22;53653;52.188;8.602;2024-03-06T01:18:11;4.95;92.88
66740;DHT22;53653;52.188;8.602;2024-03-06T01:20:36;4.98;92.81
66740;DHT22;53653;52.188;8.602;2024-03-06T01:23:03;4.97;92.97
66740;DHT22;53653;52.188;8.602;2024-03-06T01:25:28;5.00;92.92
66740;DHT22;53653;52.188;8.602;2024-03-06T01:27:54;5.00;92.73
66740;DHT22;53653;52.188;8.602;2024-03-06T01:30:20;5.00;92.32
66740;DHT22;53653;52.188;8.602;2024-03-06T01:32:45;5.00;92.42
66740;DHT22;53653;52.188;8.602;2024-03-06T01:35:11;4.98;92.38
66740;DHT22;53653;52.188;8.602;2024-03-06T01:37:37;4.98;92.39
66740;DHT22;53653;52.188;8.602;2024-03-06T01:40:03;4.95;92.38
66740;DHT22;53653;52.188;8.602;2024-03-06T01:42:30;4.95;92.60
66740;DHT22;53653;52.188;8.602;2024-03-06T01:44:55;4.94;92.40
66740;DHT22;53653;52.188;8.602;2024-03-06T01:47:21;4.93;92.46
66740;DHT22;53653;52.188;8.602;2024-03-06T01:49:47;4.93;92.38
66740;DHT22;53653;52.188;8.602;2024-03-06T01:52:14;4.95;92.08
66740;DHT22;53653;52.188;8.602;2024-03-06T01:54:40;4.97;92.60
66740;DHT22;53653;52.188;8.602;2024-03-06T01:57:07;4.95;91.72
66740;DHT22;53653;52.188;8.602;2024-03-06T01:59:33;4.97;91.61
66740;DHT22;53653;52.188;8.602;2024-03-06T02:02:00;4.94;92.04
66740;DHT22;53653;52.188;8.602;2024-03-06T02:04:27;4.95;92.03
66740;DHT22;53653;52.188;8.602;2024-03-06T02:06:54;4.98;92.08
66740;DHT22;53653;52.188;8.602;2024-03-06T02:09:20;4.95;92.35
66740;DHT22;53653;52.188;8.602;2024-03-06T02:11:45;4.98;92.51
66740;DHT22;53653;52.188;8.602;2024-03-06T02:14:11;4.93;92.43
66740;DHT22;53653;52.188;8.602;2024-03-06T02:16:38;4.93;92.36
66740;DHT22;53653;52.188;8.602;2024-03-06T02:19:07;4.88;92.32
66740;DHT22;53653;52.188;8.602;2024-03-06T02:21:33;4.91;92.27
66740;DHT22;53653;52.188;8.602;2024-03-06T02:23:59;4.87;92.36
66740;DHT22;53653;52.188;8.602;2024-03-06T02:26:25;4.90;92.05
66740;DHT22;53653;52.188;8.602;2024-03-06T02:28:51;4.90;92.13
66740;DHT22;53653;52.188;8.602;2024-03-06T02:31:18;4.90;92.11
66740;DHT22;53653;52.188;8.602;2024-03-06T02:33:46;4.91;92.36
66740;DHT22;53653;52.188;8.602;2024-03-06T02:36:15;4.93;92.02
66740;DHT22;53653;52.188;8.602;2024-03-06T02:38:42;4.93;91.73
66740;DHT22;53653;52.188;8.602;2024-03-06T02:41:08;4.94;92.00
66740;DHT22;53653;52.188;8.602;2024-03-06T02:43:34;4.97;92.07
66740;DHT22;53653;52.188;8.602;2024-03-06T02:46:00;4.97;91.55
66740;DHT22;53653;52.188;8.602;2024-03-06T02:48:26;4.97;91.90
66740;DHT22;53653;52.188;8.602;2024-03-06T02:50:52;4.95;91.30
66740;DHT22;53653;52.188;8.602;2024-03-06T02:53:17;4.97;91.70
66740;DHT22;53653;52.188;8.602;2024-03-06T02:55:43;4.97;91.39
66740;DHT22;53653;52.188;8.602;2024-03-06T02:58:09;5.00;91.67
66740;DHT22;53653;52.188;8.602;2024-03-06T03:00:34;4.98;91.47
66740;DHT22;53653;52.188;8.602;2024-03-06T03:03:00;4.98;91.31
66740;DHT22;53653;52.188;8.602;2024-03-06T03:05:26;5.00;91.31
66740;DHT22;53653;52.188;8.602;2024-03-06T03:07:51;5.01;91.55
66740;DHT22;53653;52.188;8.602;2024-03-06T03:10:18;5.01;91.34
66740;DHT22;53653;52.188;8.602;2024-03-06T03:12:44;5.01;91.57
66740;DHT22;53653;52.188;8.602;2024-03-06T03:15:09;5.04;91.40
66740;DHT22;53653;52.188;8.602;2024-03-06T03:17:35;5.05;91.51
66740;DHT22;53653;52.188;8.602;2024-03-06T03:20:02;5.04;91.34
66740;DHT22;53653;52.188;8.602;2024-03-06T03:22:42;5.04;91.34
66740;DHT22;53653;52.188;8.602;2024-03-06T03:25:11;5.03;91.61
66740;DHT22;53653;52.188;8.602;2024-03-06T03:27:40;5.04;91.98
66740;DHT22;53653;52.188;8.602;2024-03-06T03:30:10;4.95;91.86
66740;DHT22;53653;52.188;8.602;2024-03-06T03:32:39;4.98;91.93
66740;DHT22;53653;52.188;8.602;2024-03-06T03:35:05;4.98;92.02
66740;DHT22;53653;52.188;8.602;2024-03-06T03:37:31;4.98;92.32
66740;DHT22;53653;52.188;8.602;2024-03-06T03:39:56;5.04;92.28
66740;DHT22;53653;52.188;8.602;2024-03-06T03:42:22;5.00;92.17
66740;DHT22;53653;52.188;8.602;2024-03-06T03:44:47;4.98;92.02
66740;DHT22;53653;52.188;8.602;2024-03-06T03:47:13;4.95;91.63
66740;DHT22;53653;52.188;8.602;2024-03-06T03:49:38;4.95;92.14
66740;DHT22;53653;52.188;8.602;2024-03-06T03:52:04;4.91;92.16
66740;DHT22;53653;52.188;8.602;2024-03-06T03:54:29;4.88;92.42
66740;DHT22;53653;52.188;8.602;2024-03-06T03:56:55;4.84;92.81
66740;DHT22;53653;52.188;8.602;2024-03-06T03:59:20;4.84;92.56
66740;DHT22;53653;52.188;8.602;2024-03-06T04:01:46;4.80;92.69
66740;DHT22;53653;52.188;8.602;2024-03-06T04:04:15;4.79;92.74
66740;DHT22;53653;52.188;8.602;2024-03-06T04:06:41;4.79;92.74
66740;DHT22;53653;52.188;8.602;2024-03-06T04:09:06;4.83;92.63
66740;DHT22;53653;52.188;8.602;2024-03-06T04:11:36;4.84;92.81
66740;DHT22;53653;52.188;8.602;2024-03-06T04:14:05;4.80;92.69
66740;DHT22;53653;52.188;8.602;2024-03-06T04:16:34;4.79;93.25
66740;DHT22;53653;52.188;8.602;2024-03-06T04:19:00;4.80;93.34
66740;DHT22;53653;52.188;8.602;2024-03-06T04:21:26;4.80;92.95
66740;DHT22;53653;52.188;8.602;2024-03-06T04:23:51;4.83;92.80
66740;DHT22;53653;52.188;8.602;2024-03-06T04:26:17;4.83;92.71
66740;DHT22;53653;52.188;8.602;2024-03-06T04:28:43;4.84;92.82
66740;DHT22;53653;52.188;8.602;2024-03-06T04:31:09;4.83;93.04
66740;DHT22;53653;52.188;8.602;2024-03-06T04:33:34;4.83;93.15
66740;DHT22;53653;52.188;8.602;2024-03-06T04:36:02;4.85;92.98
66740;DHT22;53653;52.188;8.602;2024-03-06T04:38:28;4.83;92.87
66740;DHT22;53653;52.188;8.602;2024-03-06T04:40:54;4.84;92.97
66740;DHT22;53653;52.188;8.602;2024-03-06T04:43:20;4.81;93.46
66740;DHT22;53653;52.188;8.602;2024-03-06T04:45:45;4.87;93.35
66740;DHT22;53653;52.188;8.602;2024-03-06T04:48:10;4.85;93.43
66740;DHT22;53653;52.188;8.602;2024-03-06T04:50:36;4.84;93.28
66740;DHT22;53653;52.188;8.602;2024-03-06T04:53:01;4.81;93.20
66740;DHT22;53653;52.188;8.602;2024-03-06T04:55:27;4.84;93.51
66740;DHT22;53653;52.188;8.602;2024-03-06T04:57:52;4.77;93.75
66740;DHT22;53653;52.188;8.602;2024-03-06T05:00:19;4.80;93.75
66740;DHT22;53653;52.188;8.602;2024-03-06T05:02:44;4.77;93.78
66740;DHT22;53653;52.188;8.602;2024-03-06T05:05:11;4.83;93.39
66740;DHT22;53653;52.188;8.602;2024-03-06T05:07:36;4.80;93.36
66740;DHT22;53653;52.188;8.602;2024-03-06T05:10:02;4.83;93.09
66740;DHT22;53653;52.188;8.602;2024-03-06T05:12:27;4.84;93.06
66740;DHT22;53653;52.188;8.602;2024-03-06T05:14:54;4.85;93.15
66740;DHT22;53653;52.188;8.602;2024-03-06T05:17:20;4.87;93.46
66740;DHT22;53653;52.188;8.602;2024-03-06T05:19:46;4.84;93.45
66740;DHT22;53653;52.188;8.602;2024-03-06T05:22:13;4.87;93.51
66740;DHT22;53653;52.188;8.602;2024-03-06T05:24:39;4.85;93.52
66740;DHT22;53653;52.188;8.602;2024-03-06T05:27:04;4.90;93.49
66740;DHT22;53653;52.188;8.602;2024-03-06T05:29:30;4.91;93.29
66740;DHT22;53653;52.188;8.602;2024-03-06T05:31:55;4.94;93.35
66740;DHT22;53653;52.188;8.602;2024-03-06T05:34:22;4.94;93.17
66740;DHT22;53653;52.188;8.602;2024-03-06T05:36:47;4.95;92.98
66740;DHT22;53653;52.188;8.602;2024-03-06T05:39:13;4.97;92.75
66740;DHT22;53653;52.188;8.602;2024-03-06T05:41:40;5.00;92.53
66740;DHT22;53653;52.188;8.602;2024-03-06T05:44:06;4.97;92.51
66740;DHT22;53653;52.188;8.602;2024-03-06T05:46:31;4.97;92.47
66740;DHT22;53653;52.188;8.602;2024-03-06T05:48:57;5.00;92.24
66740;DHT22;53653;52.188;8.602;2024-03-06T05:51:23;4.98;92.20
66740;DHT22;53653;52.188;8.602;2024-03-06T05:53:48;5.04;92.04
66740;DHT22;53653;52.188;8.602;2024-03-06T05:56:14;5.05;92.16
66740;DHT22;53653;52.188;8.602;2024-03-06T05:58:39;5.07;92.13
66740;DHT22;53653;52.188;8.602;2024-03-06T06:01:05;5.04;92.00
66740;DHT22;53653;52.188;8.602;2024-03-06T06:03:30;5.07;91.79
66740;DHT22;53653;52.188;8.602;2024-03-06T06:05:56;5.05;91.84
66740;DHT22;53653;52.188;8.602;2024-03-06T06:08:22;5.04;91.98
66740;DHT22;53653;52.188;8.602;2024-03-06T06:10:47;5.11;91.80
66740;DHT22;53653;52.188;8.602;2024-03-06T06:13:13;5.11;91.83
66740;DHT22;53653;52.188;8.602;2024-03-06T06:15:38;5.14;91.41
66740;DHT22;53653;52.188;8.602;2024-03-06T06:18:04;5.12;91.31
66740;DHT22;53653;52.188;8.602;2024-03-06T06:20:29;5.14;91.34
66740;DHT22;53653;52.188;8.602;2024-03-06T06:22:55;5.17;91.27
66740;DHT22;53653;52.188;8.602;2024-03-06T06:25:22;5.18;91.24
66740;DHT22;53653;52.188;8.602;2024-03-06T06:27:48;5.27;90.98
66740;DHT22;53653;52.188;8.602;2024-03-06T06:30:15;5.24;90.69
66740;DHT22;53653;52.188;8.602;2024-03-06T06:32:41;5.24;90.46
66740;DHT22;53653;52.188;8.602;2024-03-06T06:35:07;5.25;90.41
66740;DHT22;53653;52.188;8.602;2024-03-06T06:37:34;5.25;90.33
66740;DHT22;53653;52.188;8.602;2024-03-06T06:40:00;5.27;89.98
66740;DHT22;53653;52.188;8.602;2024-03-06T06:42:25;5.27;89.86
66740;DHT22;53653;52.188;8.602;2024-03-06T06:44:51;5.31;89.78
66740;DHT22;53653;52.188;8.602;2024-03-06T06:47:17;5.34;89.84
66740;DHT22;53653;52.188;8.602;2024-03-06T06:49:42;5.36;89.88
66740;DHT22;53653;52.188;8.602;2024-03-06T06:52:07;5.36;89.86
66740;DHT22;53653;52.188;8.602;2024-03-06T06:54:33;5.35;89.95
66740;DHT22;53653;52.188;8.602;2024-03-06T06:56:58;5.35;89.91
66740;DHT22;53653;52.188;8.602;2024-03-06T06:59:24;5.41;89.92
66740;DHT22;53653;52.188;8.602;2024-03-06T07:01:49;5.41;89.63
66740;DHT22;53653;52.188;8.602;2024-03-06T07:04:15;5.46;89.80
66740;DHT22;53653;52.188;8.602;2024-03-06T07:06:45;5.49;89.55
66740;DHT22;53653;52.188;8.602;2024-03-06T07:09:12;5.49;89.51
66740;DHT22;53653;52.188;8.602;2024-03-06T07:11:37;5.52;89.39
66740;DHT22;53653;52.188;8.602;2024-03-06T07:14:03;5.55;89.41
66740;DHT22;53653;52.188;8.602;2024-03-06T07:16:28;5.52;89.35
66740;DHT22;53653;52.188;8.602;2024-03-06T07:18:54;5.55;89.60
66740;DHT22;53653;52.188;8.602;2024-03-06T07:21:19;5.55;89.48
66740;DHT22;53653;52.188;8.602;2024-03-06T07:23:45;5.55;89.48
66740;DHT22;53653;52.188;8.602;2024-03-06T07:26:10;5.60;89.34
66740;DHT22;53653;52.188;8.602;2024-03-06T07:28:35;5.55;89.28
66740;DHT22;53653;52.188;8.602;2024-03-06T07:31:03;5.62;89.39
66740;DHT22;53653;52.188;8.602;2024-03-06T07:33:28;5.66;89.10
66740;DHT22;53653;52.188;8.602;2024-03-06T07:35:53;5.65;89.14
66740;DHT22;53653;52.188;8.602;2024-03-06T07:38:20;5.65;89.30
66740;DHT22;53653;52.188;8.602;2024-03-06T07:40:46;5.67;89.39
66740;DHT22;53653;52.188;8.602;2024-03-06T07:43:11;5.67;89.42
66740;DHT22;53653;52.188;8.602;2024-03-06T07:45:37;5.67;89.38
66740;DHT22;53653;52.188;8.602;2024-03-06T07:48:02;5.70;89.57
66740;DHT22;53653;52.188;8.602;2024-03-06T07:50:28;5.73;89.55
66740;DHT22;53653;52.188;8.602;2024-03-06T07:52:53;5.77;89.26
66740;DHT22;53653;52.188;8.602;2024-03-06T07:55:20;5.69;89.44
66740;DHT22;53653;52.188;8.602;2024-03-06T07:57:47;5.79;89.63
66740;DHT22;53653;52.188;8.602;2024-03-06T08:00:13;5.79;89.08
66740;DHT22;53653;52.188;8.602;2024-03-06T08:02:45;5.73;88.90
66740;DHT22;53653;52.188;8.602;2024-03-06T08:05:17;5.79;89.13
66740;DHT22;53653;52.188;8.602;2024-03-06T08:07:43;5.83;88.68
66740;DHT22;53653;52.188;8.602;2024-03-06T08:10:10;5.81;88.81
66740;DHT22;53653;52.188;8.602;2024-03-06T08:12:42;5.74;89.03
66740;DHT22;53653;52.188;8.602;2024-03-06T08:15:11;5.85;88.98
66740;DHT22;53653;52.188;8.602;2024-03-06T08:17:40;5.86;88.98
66740;DHT22;53653;52.188;8.602;2024-03-06T08:20:08;5.87;88.64
66740;DHT22;53653;52.188;8.602;2024-03-06T08:22:35;5.86;88.61
66740;DHT22;53653;52.188;8.602;2024-03-06T08:25:08;5.93;88.83
66740;DHT22;53653;52.188;8.602;2024-03-06T08:27:38;5.99;88.51
66740;DHT22;53653;52.188;8.602;2024-03-06T08:30:04;6.01;87.91
66740;DHT22;53653;52.188;8.602;2024-03-06T08:32:34;6.04;88.09
66740;DHT22;53653;52.188;8.602;2024-03-06T08:35:04;6.14;88.19
66740;DHT22;53653;52.188;8.602;2024-03-06T08:37:32;6.13;87.77
66740;DHT22;53653;52.188;8.602;2024-03-06T08:39:59;6.16;87.63
66740;DHT22;53653;52.188;8.602;2024-03-06T08:42:25;6.06;87.78
66740;DHT22;53653;52.188;8.602;2024-03-06T08:44:50;6.10;88.31
66740;DHT22;53653;52.188;8.602;2024-03-06T08:47:16;6.25;88.22
66740;DHT22;53653;52.188;8.602;2024-03-06T08:49:41;6.16;87.85
66740;DHT22;53653;52.188;8.602;2024-03-06T08:52:06;6.11;87.87
66740;DHT22;53653;52.188;8.602;2024-03-06T08:54:32;6.10;87.95
66740;DHT22;53653;52.188;8.602;2024-03-06T08:56:57;6.18;88.14
66740;DHT22;53653;52.188;8.602;2024-03-06T08:59:24;6.25;88.06
66740;DHT22;53653;52.188;8.602;2024-03-06T09:01:53;6.38;87.87
66740;DHT22;53653;52.188;8.602;2024-03-06T09:04:19;6.32;88.10
66740;DHT22;53653;52.188;8.602;2024-03-06T09:06:45;6.28;88.24
66740;DHT22;53653;52.188;8.602;2024-03-06T09:09:10;6.34;88.18
66740;DHT22;53653;52.188;8.602;2024-03-06T09:11:36;6.30;88.39
66740;DHT22;53653;52.188;8.602;2024-03-06T09:14:01;6.27;88.43
66740;DHT22;53653;52.188;8.602;2024-03-06T09:16:27;6.34;88.41
66740;DHT22;53653;52.188;8.602;2024-03-06T09:18:52;6.37;88.50
66740;DHT22;53653;52.188;8.602;2024-03-06T09:21:18;6.31;88.35
66740;DHT22;53653;52.188;8.602;2024-03-06T09:23:45;6.27;88.39
66740;DHT22;53653;52.188;8.602;2024-03-06T09:26:10;6.32;88.55
66740;DHT22;53653;52.188;8.602;2024-03-06T09:28:36;6.37;88.63
66740;DHT22;53653;52.188;8.602;2024-03-06T09:31:01;6.46;88.27
66740;DHT22;53653;52.188;8.602;2024-03-06T09:33:26;6.55;88.25
66740;DHT22;53653;52.188;8.602;2024-03-06T09:35:52;6.62;88.16
66740;DHT22;53653;52.188;8.602;2024-03-06T09:38:17;6.61;88.02
66740;DHT22;53653;52.188;8.602;2024-03-06T09:40:43;6.56;87.96
66740;DHT22;53653;52.188;8.602;2024-03-06T09:43:09;6.55;88.07
66740;DHT22;53653;52.188;8.602;2024-03-06T09:45:35;6.53;88.27
66740;DHT22;53653;52.188;8.602;2024-03-06T09:48:01;6.58;88.29
66740;DHT22;53653;52.188;8.602;2024-03-06T09:50:29;6.66;88.35
66740;DHT22;53653;52.188;8.602;2024-03-06T09:52:57;6.69;88.43
66740;DHT22;53653;52.188;8.602;2024-03-06T09:55:23;6.65;88.38
66740;DHT22;53653;52.188;8.602;2024-03-06T09:57:49;6.62;88.64
66740;DHT22;53653;52.188;8.602;2024-03-06T10:00:15;6.62;89.05
66740;DHT22;53653;52.188;8.602;2024-03-06T10:02:49;6.66;89.16
66740;DHT22;53653;52.188;8.602;2024-03-06T10:05:23;6.78;88.96
66740;DHT22;53653;52.188;8.602;2024-03-06T10:07:50;6.76;88.99
66740;DHT22;53653;52.188;8.602;2024-03-06T10:10:16;6.78;88.98
66740;DHT22;53653;52.188;8.602;2024-03-06T10:12:44;6.73;88.66
66740;DHT22;53653;52.188;8.602;2024-03-06T10:15:10;6.80;88.63
66740;DHT22;53653;52.188;8.602;2024-03-06T10:17:37;6.75;88.57
66740;DHT22;53653;52.188;8.602;2024-03-06T10:20:19;6.92;88.49
66740;DHT22;53653;52.188;8.602;2024-03-06T10:22:53;6.85;88.49
66740;DHT22;53653;52.188;8.602;2024-03-06T10:25:22;6.99;87.97
66740;DHT22;53653;52.188;8.602;2024-03-06T10:30:31;6.97;87.69
66740;DHT22;53653;52.188;8.602;2024-03-06T10:32:56;6.99;87.94
66740;DHT22;53653;52.188;8.602;2024-03-06T10:35:21;6.95;88.35
66740;DHT22;53653;52.188;8.602;2024-03-06T10:37:48;6.95;88.17
66740;DHT22;53653;52.188;8.602;2024-03-06T10:40:15;7.10;87.98
66740;DHT22;53653;52.188;8.602;2024-03-06T10:42:41;7.14;87.84
66740;DHT22;53653;52.188;8.602;2024-03-06T10:45:08;7.26;87.23
66740;DHT22;53653;52.188;8.602;2024-03-06T10:47:36;7.30;87.15
66740;DHT22;53653;52.188;8.602;2024-03-06T10:50:03;7.26;87.03
66740;DHT22;53653;52.188;8.602;2024-03-06T10:52:32;7.38;87.15
66740;DHT22;53653;52.188;8.602;2024-03-06T10:54:59;7.40;87.12
66740;DHT22;53653;52.188;8.602;2024-03-06T10:57:25;7.50;86.21
66740;DHT22;53653;52.188;8.602;2024-03-06T10:59:52;7.47;85.95
66740;DHT22;53653;52.188;8.602;2024-03-06T11:02:18;7.58;86.26
66740;DHT22;53653;52.188;8.602;2024-03-06T11:04:44;7.41;85.81
66740;DHT22;53653;52.188;8.602;2024-03-06T11:07:10;7.37;86.21
66740;DHT22;53653;52.188;8.602;2024-03-06T11:09:36;7.34;86.29
66740;DHT22;53653;52.188;8.602;2024-03-06T11:12:05;7.28;86.54
66740;DHT22;53653;52.188;8.602;2024-03-06T11:14:38;7.17;86.84
66740;DHT22;53653;52.188;8.602;2024-03-06T11:17:10;7.26;86.80
66740;DHT22;53653;52.188;8.602;2024-03-06T11:28:16;7.48;85.93
66740;DHT22;53653;52.188;8.602;2024-03-06T11:30:56;7.50;85.58
66740;DHT22;53653;52.188;8.602;2024-03-06T11:33:41;7.28;86.23
66740;DHT22;53653;52.188;8.602;2024-03-06T11:36:23;7.23;86.05
66740;DHT22;53653;52.188;8.602;2024-03-06T11:39:01;7.28;86.05
66740;DHT22;53653;52.188;8.602;2024-03-06T11:44:18;7.37;86.07
66740;DHT22;53653;52.188;8.602;2024-03-06T11:46:56;7.28;86.60
66740;DHT22;53653;52.188;8.602;2024-03-06T11:49:26;7.45;85.92
66740;DHT22;53653;52.188;8.602;2024-03-06T11:51:59;7.37;85.82
66740;DHT22;53653;52.188;8.602;2024-03-06T11:54:25;7.31;85.92
66740;DHT22;53653;52.188;8.602;2024-03-06T11:56:56;7.31;85.60
66740;DHT22;53653;52.188;8.602;2024-03-06T11:59:23;7.27;85.51
66740;DHT22;53653;52.188;8.602;2024-03-06T12:01:50;7.32;85.24
66740;DHT22;53653;52.188;8.602;2024-03-06T12:04:16;7.41;85.28
66740;DHT22;53653;52.188;8.602;2024-03-06T12:06:43;7.45;85.90
66740;DHT22;53653;52.188;8.602;2024-03-06T12:09:08;7.48;85.30
66740;DHT22;53653;52.188;8.602;2024-03-06T12:11:39;7.48;84.83
66740;DHT22;53653;52.188;8.602;2024-03-06T12:14:04;7.45;84.84
66740;DHT22;53653;52.188;8.602;2024-03-06T12:16:30;7.50;84.80
66740;DHT22;53653;52.188;8.602;2024-03-06T12:18:57;7.64;84.89
66740;DHT22;53653;52.188;8.602;2024-03-06T12:21:32;7.69;84.79
66740;DHT22;53653;52.188;8.602;2024-03-06T12:24:10;7.79;84.22
66740;DHT22;53653;52.188;8.602;2024-03-06T12:26:36;7.81;84.16
66740;DHT22;53653;52.188;8.602;2024-03-06T12:29:10;7.75;84.21
66740;DHT22;53653;52.188;8.602;2024-03-06T12:31:37;7.83;83.72
66740;DHT22;53653;52.188;8.602;2024-03-06T12:34:03;7.82;83.74
66740;DHT22;53653;52.188;8.602;2024-03-06T12:36:30;7.93;83.59
66740;DHT22;53653;52.188;8.602;2024-03-06T12:38:59;8.10;83.31
66740;DHT22;53653;52.188;8.602;2024-03-06T12:41:24;8.06;82.73
66740;DHT22;53653;52.188;8.602;2024-03-06T12:43:51;8.02;83.07
66740;DHT22;53653;52.188;8.602;2024-03-06T12:46:17;8.22;83.01
66740;DHT22;53653;52.188;8.602;2024-03-06T12:48:44;8.16;82.74
66740;DHT22;53653;52.188;8.602;2024-03-06T12:51:10;8.10;82.83
66740;DHT22;53653;52.188;8.602;2024-03-06T12:53:35;7.99;83.05
66740;DHT22;53653;52.188;8.602;2024-03-06T12:56:01;8.06;83.67
66740;DHT22;53653;52.188;8.602;2024-03-06T12:58:26;8.05;83.08
66740;DHT22;53653;52.188;8.602;2024-03-06T13:00:52;8.19;83.09
66740;DHT22;53653;52.188;8.602;2024-03-06T13:03:19;8.20;82.98
66740;DHT22;53653;52.188;8.602;2024-03-06T13:05:44;8.30;82.85
66740;DHT22;53653;52.188;8.602;2024-03-06T13:08:12;8.41;82.27
66740;DHT22;53653;52.188;8.602;2024-03-06T13:10:42;8.40;82.42
66740;DHT22;53653;52.188;8.602;2024-03-06T13:13:07;8.36;82.02
66740;DHT22;53653;52.188;8.602;2024-03-06T13:15:33;8.29;82.32
66740;DHT22;53653;52.188;8.602;2024-03-06T13:18:00;8.30;82.49
66740;DHT22;53653;52.188;8.602;2024-03-06T13:20:33;8.44;81.99
66740;DHT22;53653;52.188;8.602;2024-03-06T13:22:59;8.36;82.21
66740;DHT22;53653;52.188;8.602;2024-03-06T13:25:24;8.43;81.67
66740;DHT22;53653;52.188;8.602;2024-03-06T13:27:50;8.61;82.03
66740;DHT22;53653;52.188;8.602;2024-03-06T13:30:18;8.71;81.23
66740;DHT22;53653;52.188;8.602;2024-03-06T13:32:43;8.53;81.50
66740;DHT22;53653;52.188;8.602;2024-03-06T13:35:11;8.58;81.22
66740;DHT22;53653;52.188;8.602;2024-03-06T13:37:44;8.54;81.67
66740;DHT22;53653;52.188;8.602;2024-03-06T13:40:10;8.45;81.90
66740;DHT22;53653;52.188;8.602;2024-03-06T13:42:41;8.57;81.67
66740;DHT22;53653;52.188;8.602;2024-03-06T13:45:07;8.61;81.47
66740;DHT22;53653;52.188;8.602;2024-03-06T13:47:41;8.71;81.10
66740;DHT22;53653;52.188;8.602;2024-03-06T13:50:11;8.72;81.34
66740;DHT22;53653;52.188;8.602;2024-03-06T13:52:37;8.72;81.27
66740;DHT22;53653;52.188;8.602;2024-03-06T13:55:03;8.81;80.72
66740;DHT22;53653;52.188;8.602;2024-03-06T13:57:35;9.02;80.39
66740;DHT22;53653;52.188;8.602;2024-03-06T14:00:06;9.09;80.28
66740;DHT22;53653;52.188;8.602;2024-03-06T14:02:39;9.16;79.89
66740;DHT22;53653;52.188;8.602;2024-03-06T14:05:08;9.11;79.87
66740;DHT22;53653;52.188;8.602;2024-03-06T14:07:34;8.98;79.77
66740;DHT22;53653;52.188;8.602;2024-03-06T14:09:59;8.99;79.93
66740;DHT22;53653;52.188;8.602;2024-03-06T14:12:25;9.13;80.15
66740;DHT22;53653;52.188;8.602;2024-03-06T14:14:50;8.95;80.24
66740;DHT22;53653;52.188;8.602;2024-03-06T14:17:16;9.12;80.34
66740;DHT22;53653;52.188;8.602;2024-03-06T14:19:41;9.23;79.65
66740;DHT22;53653;52.188;8.602;2024-03-06T14:22:08;9.11;79.84
66740;DHT22;53653;52.188;8.602;2024-03-06T14:24:33;9.13;80.29
66740;DHT22;53653;52.188;8.602;2024-03-06T14:26:59;9.18;79.73
66740;DHT22;53653;52.188;8.602;2024-03-06T14:29:24;9.05;79.95
66740;DHT22;53653;52.188;8.602;2024-03-06T14:31:52;9.01;79.87
66740;DHT22;53653;52.188;8.602;2024-03-06T14:34:17;9.16;79.87
66740;DHT22;53653;52.188;8.602;2024-03-06T14:36:43;9.15;79.93
66740;DHT22;53653;52.188;8.602;2024-03-06T14:39:08;9.22;79.84
66740;DHT22;53653;52.188;8.602;2024-03-06T14:41:36;9.18;79.58
66740;DHT22;53653;52.188;8.602;2024-03-06T14:44:01;9.20;79.50
66740;DHT22;53653;52.188;8.602;2024-03-06T14:46:28;9.11;79.40
66740;DHT22;53653;52.188;8.602;2024-03-06T14:48:54;9.15;79.76
66740;DHT22;53653;52.188;8.602;2024-03-06T14:51:20;8.91;80.43
66740;DHT22;53653;52.188;8.602;2024-03-06T14:53:45;8.89;80.31
66740;DHT22;53653;52.188;8.602;2024-03-06T14:56:11;8.89;80.38
66740;DHT22;53653;52.188;8.602;2024-03-06T14:58:37;8.72;80.43
66740;DHT22;53653;52.188;8.602;2024-03-06T15:01:03;8.63;80.72
66740;DHT22;53653;52.188;8.602;2024-03-06T15:03:30;8.69;80.87
66740;DHT22;53653;52.188;8.602;2024-03-06T15:05:55;8.74;80.90
66740;DHT22;53653;52.188;8.602;2024-03-06T15:08:21;8.91;80.09
66740;DHT22;53653;52.188;8.602;2024-03-06T15:10:46;8.96;80.17
66740;DHT22;53653;52.188;8.602;2024-03-06T15:13:12;8.88;79.54
66740;DHT22;53653;52.188;8.602;2024-03-06T15:15:41;8.76;80.04
66740;DHT22;53653;52.188;8.602;2024-03-06T15:18:06;8.82;80.43
66740;DHT22;53653;52.188;8.602;2024-03-06T15:20:32;8.65;80.02
66740;DHT22;53653;52.188;8.602;2024-03-06T15:22:59;8.74;80.31
66740;DHT22;53653;52.188;8.602;2024-03-06T15:25:24;8.81;79.74
66740;DHT22;53653;52.188;8.602;2024-03-06T15:27:50;8.86;79.69
66740;DHT22;53653;52.188;8.602;2024-03-06T15:30:15;8.76;79.85
66740;DHT22;53653;52.188;8.602;2024-03-06T15:32:42;8.89;80.00
66740;DHT22;53653;52.188;8.602;2024-03-06T15:35:07;8.85;79.71
66740;DHT22;53653;52.188;8.602;2024-03-06T15:37:34;8.89;79.62
66740;DHT22;53653;52.188;8.602;2024-03-06T15:39:59;8.72;79.75
66740;DHT22;53653;52.188;8.602;2024-03-06T15:42:25;8.68;80.31
66740;DHT22;53653;52.188;8.602;2024-03-06T15:44:51;8.55;80.37
66740;DHT22;53653;52.188;8.602;2024-03-06T15:47:18;8.57;80.61
66740;DHT22;53653;52.188;8.602;2024-03-06T15:49:44;8.61;80.29
66740;DHT22;53653;52.188;8.602;2024-03-06T15:52:10;8.58;80.40
66740;DHT22;53653;52.188;8.602;2024-03-06T15:54:36;8.67;80.29